Time,TemperatureF,DewpointF,PressureIn,WindDirection,WindDirectionDegrees,WindSpeedMPH,WindSpeedGustMPH,Humidity,HourlyPrecipIn,Conditions,Clouds,dailyrainin,SoftwareType,DateUTC
2013-03-19 00:01:00,14.2,7.1,29.78,NW,315,10.5,15.9,73,0.00,,,0.00,WUHU21623XXSP,2013-03-19 05:01:00,
2013-03-19 00:06:00,14.2,7.1,29.78,WNW,287,5.8,13.0,73,0.00,,,0.00,WUHU21623XXSP,2013-03-19 05:06:00,
2013-03-19 00:11:00,14.0,6.7,29.78,NNW,337,6.0,13.9,72,0.00,,,0.00,WUHU21623XXSP,2013-03-19 05:11:00,
2013-03-19 00:17:00,13.8,6.5,29.78,West,270,18.1,18.1,72,0.00,,,0.00,WUHU21623XXSP,2013-03-19 05:17:00,
2013-03-19 00:22:00,13.8,6.8,29.78,NW,315,11.6,18.1,73,0.00,,,0.00,WUHU21623XXSP,2013-03-19 05:22:00,
2013-03-19 00:27:00,13.8,6.8,29.79,WNW,294,6.5,13.9,73,0.00,,,0.00,WUHU21623XXSP,2013-03-19 05:27:00,
2013-03-19 00:32:00,13.6,6.6,29.78,North,0,9.2,13.9,73,0.00,,,0.00,WUHU21623XXSP,2013-03-19 05:32:00,
2013-03-19 00:37:00,13.6,6.6,29.79,NW,308,7.6,13.9,73,0.00,,,0.00,WUHU21623XXSP,2013-03-19 05:37:00,
2013-03-19 00:42:00,13.3,6.2,29.79,NW,324,11.4,16.1,73,0.00,,,0.00,WUHU21623XXSP,2013-03-19 05:42:00,
2013-03-19 00:47:00,13.3,6.2,29.79,WNW,286,6.4,16.1,73,0.00,,,0.00,WUHU21623XXSP,2013-03-19 05:47:00,
2013-03-19 00:52:00,13.3,6.2,29.79,NNW,337,7.4,12.3,73,0.00,,,0.00,WUHU21623XXSP,2013-03-19 05:52:00,
2013-03-19 00:57:00,13.1,6.0,29.79,WNW,298,7.6,14.1,73,0.00,,,0.00,WUHU21623XXSP,2013-03-19 05:57:00,
2013-03-19 01:02:00,13.1,6.0,29.79,NW,315,8.9,14.1,73,0.00,,,0.00,WUHU21623XXSP,2013-03-19 06:02:00,
2013-03-19 01:07:00,12.9,5.6,29.79,NW,309,5.9,11.2,72,0.00,,,0.00,WUHU21623XXSP,2013-03-19 06:07:00,
2013-03-19 01:12:00,12.9,5.6,29.80,WNW,294,7.1,11.9,72,0.00,,,0.00,WUHU21623XXSP,2013-03-19 06:12:00,
2013-03-19 01:17:00,12.7,5.4,29.80,West,276,5.2,11.9,72,0.00,,,0.00,WUHU21623XXSP,2013-03-19 06:17:00,
2013-03-19 01:22:00,12.7,5.7,29.80,WNW,285,8.0,15.7,73,0.00,,,0.00,WUHU21623XXSP,2013-03-19 06:22:00,
2013-03-19 01:27:00,12.7,5.7,29.80,West,270,8.3,15.7,73,0.00,,,0.00,WUHU21623XXSP,2013-03-19 06:27:00,
2013-03-19 01:32:00,12.6,5.5,29.80,West,270,8.1,11.9,73,0.00,,,0.00,WUHU21623XXSP,2013-03-19 06:32:00,
2013-03-19 01:37:00,12.6,5.5,29.80,NW,315,7.8,13.9,73,0.00,,,0.00,WUHU21623XXSP,2013-03-19 06:37:00,
2013-03-19 01:42:00,12.4,5.3,29.81,WNW,292,8.3,13.9,73,0.00,,,0.00,WUHU21623XXSP,2013-03-19 06:42:00,
2013-03-19 01:47:00,12.4,5.3,29.81,West,270,7.6,12.8,73,0.00,,,0.00,WUHU21623XXSP,2013-03-19 06:47:00,
2013-03-19 01:52:00,12.2,5.1,29.81,WNW,292,7.2,13.2,73,0.00,,,0.00,WUHU21623XXSP,2013-03-19 06:52:00,
2013-03-19 01:57:00,12.2,5.1,29.82,NW,306,4.3,13.2,73,0.00,,,0.00,WUHU21623XXSP,2013-03-19 06:57:00,
2013-03-19 02:02:00,12.0,5.0,29.82,WNW,288,7.3,11.9,73,0.00,,,0.00,WUHU21623XXSP,2013-03-19 07:02:00,
2013-03-19 02:07:00,12.0,5.0,29.82,WNW,296,5.8,13.4,73,0.00,,,0.00,WUHU21623XXSP,2013-03-19 07:07:00,
2013-03-19 02:12:00,12.0,5.0,29.82,NW,316,5.9,13.4,73,0.00,,,0.00,WUHU21623XXSP,2013-03-19 07:12:00,
2013-03-19 02:17:00,12.0,5.0,29.82,NW,315,6.3,10.5,73,0.00,,,0.00,WUHU21623XXSP,2013-03-19 07:17:00,
2013-03-19 02:22:00,12.0,5.0,29.82,WNW,295,6.7,10.1,73,0.00,,,0.00,WUHU21623XXSP,2013-03-19 07:22:00,
2013-03-19 02:27:00,12.0,5.0,29.83,NNW,337,6.7,12.1,73,0.00,,,0.00,WUHU21623XXSP,2013-03-19 07:27:00,
2013-03-19 02:32:00,12.0,5.0,29.83,WNW,283,7.1,12.1,73,0.00,,,0.00,WUHU21623XXSP,2013-03-19 07:32:00,
2013-03-19 02:37:00,12.0,5.0,29.83,NW,315,9.2,13.6,73,0.00,,,0.00,WUHU21623XXSP,2013-03-19 07:37:00,
2013-03-19 02:42:00,12.0,5.0,29.83,WNW,292,7.2,13.6,73,0.00,,,0.00,WUHU21623XXSP,2013-03-19 07:42:00,
2013-03-19 02:47:00,12.0,5.0,29.83,WNW,290,5.1,12.3,73,0.00,,,0.00,WUHU21623XXSP,2013-03-19 07:47:00,
2013-03-19 02:52:00,12.0,5.0,29.83,NW,315,13.6,13.6,73,0.00,,,0.00,WUHU21623XXSP,2013-03-19 07:52:00,
2013-03-19 02:57:00,12.0,5.0,29.83,NNW,337,9.8,13.6,73,0.00,,,0.00,WUHU21623XXSP,2013-03-19 07:57:00,
2013-03-19 03:02:00,11.8,4.8,29.83,WNW,302,4.8,12.8,73,0.00,,,0.00,WUHU21623XXSP,2013-03-19 08:02:00,
2013-03-19 03:08:00,11.8,4.8,29.83,WNW,292,6.7,10.3,73,0.00,,,0.00,WUHU21623XXSP,2013-03-19 08:08:00,
2013-03-19 03:13:00,11.8,4.8,29.83,WNW,283,6.8,10.5,73,0.00,,,0.00,WUHU21623XXSP,2013-03-19 08:13:00,
2013-03-19 03:18:00,11.8,4.8,29.83,NW,315,6.5,10.5,73,0.00,,,0.00,WUHU21623XXSP,2013-03-19 08:18:00,
2013-03-19 03:23:00,11.8,4.8,29.84,West,278,7.1,10.5,73,0.00,,,0.00,WUHU21623XXSP,2013-03-19 08:23:00,
2013-03-19 03:28:00,11.7,4.6,29.83,North,0,6.3,10.5,73,0.00,,,0.00,WUHU21623XXSP,2013-03-19 08:28:00,
2013-03-19 03:33:00,11.7,4.6,29.84,WNW,293,6.2,10.3,73,0.00,,,0.00,WUHU21623XXSP,2013-03-19 08:33:00,
2013-03-19 03:38:00,11.5,4.4,29.84,WNW,301,4.5,10.3,73,0.00,,,0.00,WUHU21623XXSP,2013-03-19 08:38:00,
2013-03-19 03:43:00,11.5,4.4,29.84,NW,306,7.2,11.4,73,0.00,,,0.00,WUHU21623XXSP,2013-03-19 08:43:00,
2013-03-19 03:48:00,11.5,4.4,29.83,NW,307,5.3,12.1,73,0.00,,,0.00,WUHU21623XXSP,2013-03-19 08:48:00,
2013-03-19 03:53:00,11.3,4.2,29.83,WNW,296,5.6,12.1,73,0.00,,,0.00,WUHU21623XXSP,2013-03-19 08:53:00,
2013-03-19 03:58:00,11.3,4.5,29.84,NW,305,5.4,12.1,74,0.00,,,0.00,WUHU21623XXSP,2013-03-19 08:58:00,
2013-03-19 04:03:00,11.3,4.2,29.84,SE,135,6.5,8.7,73,0.00,,,0.00,WUHU21623XXSP,2013-03-19 09:03:00,
2013-03-19 04:08:00,11.1,4.4,29.84,West,270,3.8,13.0,74,0.00,,,0.00,WUHU21623XXSP,2013-03-19 09:08:00,
2013-03-19 04:13:00,11.1,4.4,29.84,WNW,285,4.6,13.0,74,0.00,,,0.00,WUHU21623XXSP,2013-03-19 09:13:00,
2013-03-19 04:18:00,11.1,4.1,29.84,WNW,292,3.5,8.1,73,0.00,,,0.00,WUHU21623XXSP,2013-03-19 09:18:00,
2013-03-19 04:23:00,11.1,4.1,29.84,West,270,8.5,9.2,73,0.00,,,0.00,WUHU21623XXSP,2013-03-19 09:23:00,
2013-03-19 04:28:00,10.9,3.9,29.84,WNW,302,4.6,16.6,73,0.00,,,0.00,WUHU21623XXSP,2013-03-19 09:28:00,
2013-03-19 04:33:00,10.9,3.9,29.85,NNW,337,6.9,16.6,73,0.00,,,0.00,WUHU21623XXSP,2013-03-19 09:33:00,
2013-03-19 04:38:00,10.8,3.7,29.85,NW,315,6.0,9.6,73,0.00,,,0.00,WUHU21623XXSP,2013-03-19 09:38:00,
2013-03-19 04:43:00,10.6,3.5,29.85,NW,315,7.8,11.6,73,0.00,,,0.00,WUHU21623XXSP,2013-03-19 09:43:00,
2013-03-19 04:48:00,10.6,3.5,29.85,WNW,301,4.8,11.6,73,0.00,,,0.00,WUHU21623XXSP,2013-03-19 09:48:00,
2013-03-19 04:53:00,10.6,3.5,29.86,West,270,8.3,11.2,73,0.00,,,0.00,WUHU21623XXSP,2013-03-19 09:53:00,
2013-03-19 04:58:00,10.6,3.5,29.86,NW,315,7.2,11.2,73,0.00,,,0.00,WUHU21623XXSP,2013-03-19 09:58:00,
2013-03-19 05:03:00,10.6,3.5,29.86,NW,315,11.6,16.8,73,0.00,,,0.00,WUHU21623XXSP,2013-03-19 10:03:00,
2013-03-19 05:08:00,10.6,3.5,29.86,NW,312,5.7,16.8,73,0.00,,,0.00,WUHU21623XXSP,2013-03-19 10:08:00,
2013-03-19 05:13:00,10.6,3.5,29.87,WNW,292,6.7,11.4,73,0.00,,,0.00,WUHU21623XXSP,2013-03-19 10:13:00,
2013-03-19 05:18:00,10.6,3.5,29.87,WNW,298,5.9,13.2,73,0.00,,,0.00,WUHU21623XXSP,2013-03-19 10:18:00,
2013-03-19 05:23:00,10.6,3.5,29.87,NW,309,6.7,14.1,73,0.00,,,0.00,WUHU21623XXSP,2013-03-19 10:23:00,
2013-03-19 05:28:00,10.2,3.2,29.87,West,270,6.7,14.1,73,0.00,,,0.00,WUHU21623XXSP,2013-03-19 10:28:00,
2013-03-19 05:33:00,10.2,3.2,29.87,NNW,337,9.2,11.0,73,0.00,,,0.00,WUHU21623XXSP,2013-03-19 10:33:00,
2013-03-19 05:38:00,10.2,3.2,29.87,NNW,329,5.6,11.0,73,0.00,,,0.00,WUHU21623XXSP,2013-03-19 10:38:00,
2013-03-19 05:43:00,10.2,3.2,29.87,WNW,292,7.8,10.7,73,0.00,,,0.00,WUHU21623XXSP,2013-03-19 10:43:00,
2013-03-19 05:48:00,10.2,3.2,29.88,NW,304,4.1,11.0,73,0.00,,,0.00,WUHU21623XXSP,2013-03-19 10:48:00,
2013-03-19 05:53:00,10.0,3.0,29.88,NW,315,4.7,11.0,73,0.00,,,0.00,WUHU21623XXSP,2013-03-19 10:53:00,
2013-03-19 05:58:00,10.0,3.0,29.88,NW,315,5.8,9.6,73,0.00,,,0.00,WUHU21623XXSP,2013-03-19 10:58:00,
2013-03-19 06:03:00,10.0,3.0,29.87,NW,312,5.9,11.4,73,0.00,,,0.00,WUHU21623XXSP,2013-03-19 11:03:00,
2013-03-19 06:08:00,9.7,2.7,29.88,West,270,7.8,11.4,73,0.00,,,0.00,WUHU21623XXSP,2013-03-19 11:08:00,
2013-03-19 06:13:00,9.7,2.7,29.88,WNW,296,5.5,9.6,73,0.00,,,0.00,WUHU21623XXSP,2013-03-19 11:13:00,
2013-03-19 06:18:00,9.7,2.7,29.88,NNW,337,7.8,9.6,73,0.00,,,0.00,WUHU21623XXSP,2013-03-19 11:18:00,
2013-03-19 06:23:00,9.7,2.7,29.89,NNW,337,8.1,9.4,73,0.00,,,0.00,WUHU21623XXSP,2013-03-19 11:23:00,
2013-03-19 06:28:00,9.7,2.7,29.88,WNW,299,3.7,9.2,73,0.00,,,0.00,WUHU21623XXSP,2013-03-19 11:28:00,
2013-03-19 06:33:00,9.7,2.7,29.89,NW,308,4.0,6.7,73,0.00,,,0.00,WUHU21623XXSP,2013-03-19 11:33:00,
2013-03-19 06:38:00,9.7,2.7,29.89,NW,315,4.0,8.7,73,0.00,,,0.00,WUHU21623XXSP,2013-03-19 11:38:00,
2013-03-19 06:43:00,9.7,2.7,29.89,NW,309,6.2,10.1,73,0.00,,,0.00,WUHU21623XXSP,2013-03-19 11:43:00,
2013-03-19 06:48:00,9.5,2.5,29.89,NW,324,6.2,11.9,73,0.00,,,0.00,WUHU21623XXSP,2013-03-19 11:48:00,
2013-03-19 06:53:00,9.5,2.5,29.90,NW,318,4.1,11.9,73,0.00,,,0.00,WUHU21623XXSP,2013-03-19 11:53:00,
2013-03-19 06:58:00,9.5,2.5,29.90,WNW,292,5.6,11.9,73,0.00,,,0.00,WUHU21623XXSP,2013-03-19 11:58:00,
2013-03-19 07:03:00,9.3,2.4,29.91,NW,312,5.7,11.9,73,0.00,,,0.00,WUHU21623XXSP,2013-03-19 12:03:00,
2013-03-19 07:08:00,9.3,2.4,29.91,NW,315,4.0,11.9,73,0.00,,,0.00,WUHU21623XXSP,2013-03-19 12:08:00,
2013-03-19 07:13:00,9.3,2.4,29.91,West,266,5.0,10.5,73,0.00,,,0.00,WUHU21623XXSP,2013-03-19 12:13:00,
2013-03-19 07:19:00,9.1,2.2,29.92,WNW,292,5.8,10.5,73,0.00,,,0.00,WUHU21623XXSP,2013-03-19 12:19:00,
2013-03-19 07:24:00,9.1,2.2,29.92,NW,315,3.8,9.8,73,0.00,,,0.00,WUHU21623XXSP,2013-03-19 12:24:00,
2013-03-19 07:29:00,9.0,1.8,29.92,West,270,4.9,9.8,72,0.00,,,0.00,WUHU21623XXSP,2013-03-19 12:29:00,
2013-03-19 07:34:00,8.6,1.4,29.92,WNW,296,3.8,6.5,72,0.00,,,0.00,WUHU21623XXSP,2013-03-19 12:34:00,
2013-03-19 07:39:00,8.4,1.3,29.93,WNW,292,3.1,6.7,72,0.00,,,0.00,WUHU21623XXSP,2013-03-19 12:39:00,
2013-03-19 07:44:00,8.2,1.1,29.93,NW,315,4.9,6.7,72,0.00,,,0.00,WUHU21623XXSP,2013-03-19 12:44:00,
2013-03-19 07:49:00,7.9,0.7,29.94,West,278,3.0,8.1,72,0.00,,,0.00,WUHU21623XXSP,2013-03-19 12:49:00,
2013-03-19 07:54:00,7.7,0.5,29.94,NW,315,3.1,8.1,72,0.00,,,0.00,WUHU21623XXSP,2013-03-19 12:54:00,
2013-03-19 07:59:00,7.5,0.6,29.94,West,279,5.3,8.1,73,0.00,,,0.00,WUHU21623XXSP,2013-03-19 12:59:00,
2013-03-19 08:04:00,7.5,0.6,29.95,WNW,292,2.9,8.3,73,0.00,,,0.00,WUHU21623XXSP,2013-03-19 13:04:00,
2013-03-19 08:09:00,7.5,0.6,29.94,WNW,292,3.8,8.3,73,0.00,,,0.00,WUHU21623XXSP,2013-03-19 13:09:00,
2013-03-19 08:14:00,7.5,0.6,29.95,NNW,337,3.1,8.3,73,0.00,,,0.00,WUHU21623XXSP,2013-03-19 13:14:00,
2013-03-19 08:19:00,7.5,0.6,29.95,WNW,295,4.6,8.3,73,0.00,,,0.00,WUHU21623XXSP,2013-03-19 13:19:00,
2013-03-19 08:24:00,7.7,0.8,29.96,WNW,301,4.5,8.3,73,0.00,,,0.00,WUHU21623XXSP,2013-03-19 13:24:00,
2013-03-19 08:29:00,7.9,1.0,29.96,WNW,302,5.1,8.7,73,0.00,,,0.00,WUHU21623XXSP,2013-03-19 13:29:00,
2013-03-19 08:34:00,8.1,1.2,29.97,WNW,303,6.6,11.2,73,0.00,,,0.00,WUHU21623XXSP,2013-03-19 13:34:00,
2013-03-19 08:39:00,8.4,1.5,29.97,WNW,288,5.8,11.2,73,0.00,,,0.00,WUHU21623XXSP,2013-03-19 13:39:00,
2013-03-19 08:44:00,8.4,1.5,29.98,West,270,5.6,13.6,73,0.00,,,0.00,WUHU21623XXSP,2013-03-19 13:44:00,
2013-03-19 08:49:00,8.6,1.7,29.98,WNW,298,5.1,13.6,73,0.00,,,0.00,WUHU21623XXSP,2013-03-19 13:49:00,
2013-03-19 08:54:00,8.8,1.9,29.98,NW,315,9.2,10.3,73,0.00,,,0.00,WUHU21623XXSP,2013-03-19 13:54:00,
2013-03-19 08:59:00,9.1,2.2,29.98,NNW,337,7.2,9.2,73,0.00,,,0.00,WUHU21623XXSP,2013-03-19 13:59:00,
2013-03-19 09:04:00,9.3,2.4,29.99,NNW,337,8.3,10.1,73,0.00,,,0.00,WUHU21623XXSP,2013-03-19 14:04:00,
2013-03-19 09:09:00,9.5,2.5,29.99,NW,315,8.1,10.1,73,0.00,,,0.00,WUHU21623XXSP,2013-03-19 14:09:00,
2013-03-19 09:14:00,9.7,2.7,29.99,WNW,284,4.9,8.5,73,0.00,,,0.00,WUHU21623XXSP,2013-03-19 14:14:00,
2013-03-19 09:19:00,9.7,2.4,29.99,NW,315,6.5,8.7,72,0.00,,,0.00,WUHU21623XXSP,2013-03-19 14:19:00,
2013-03-19 09:24:00,10.0,3.0,30.00,NW,311,5.5,8.7,73,0.00,,,0.00,WUHU21623XXSP,2013-03-19 14:24:00,
2013-03-19 09:29:00,10.2,2.9,29.99,West,270,4.5,9.8,72,0.00,,,0.00,WUHU21623XXSP,2013-03-19 14:29:00,
2013-03-19 09:34:00,10.6,3.2,30.00,NW,315,5.0,9.8,72,0.00,,,0.00,WUHU21623XXSP,2013-03-19 14:34:00,
2013-03-19 09:39:00,10.9,3.6,30.00,WNW,301,4.4,8.5,72,0.00,,,0.00,WUHU21623XXSP,2013-03-19 14:39:00,
2013-03-19 09:44:00,11.1,3.8,30.00,WNW,292,7.4,10.7,72,0.00,,,0.00,WUHU21623XXSP,2013-03-19 14:44:00,
2013-03-19 09:49:00,11.3,4.0,30.01,WNW,291,4.2,10.7,72,0.00,,,0.00,WUHU21623XXSP,2013-03-19 14:49:00,
2013-03-19 09:54:00,11.7,4.3,30.01,West,278,5.4,11.9,72,0.00,,,0.00,WUHU21623XXSP,2013-03-19 14:54:00,
2013-03-19 09:59:00,12.0,4.4,30.01,West,278,5.3,11.9,71,0.00,,,0.00,WUHU21623XXSP,2013-03-19 14:59:00,
2013-03-19 10:04:00,12.4,4.7,30.01,WNW,300,5.5,9.4,71,0.00,,,0.00,WUHU21623XXSP,2013-03-19 15:04:00,
2013-03-19 10:09:00,12.7,5.1,30.01,West,270,6.3,9.8,71,0.00,,,0.00,WUHU21623XXSP,2013-03-19 15:09:00,
2013-03-19 10:14:00,12.9,5.3,30.01,NW,315,8.1,12.1,71,0.00,,,0.00,WUHU21623XXSP,2013-03-19 15:14:00,
2013-03-19 10:19:00,13.3,5.4,30.02,WNW,293,5.6,12.1,70,0.00,,,0.00,WUHU21623XXSP,2013-03-19 15:19:00,
2013-03-19 10:24:00,13.6,5.7,30.02,West,270,9.2,9.8,70,0.00,,,0.00,WUHU21623XXSP,2013-03-19 15:24:00,
2013-03-19 10:29:00,14.2,6.2,30.02,West,268,6.1,9.2,70,0.00,,,0.00,WUHU21623XXSP,2013-03-19 15:29:00,
2013-03-19 10:34:00,14.5,6.6,30.02,WSW,247,6.3,13.0,70,0.00,,,0.00,WUHU21623XXSP,2013-03-19 15:34:00,
2013-03-19 10:39:00,14.7,6.4,30.03,West,270,6.9,13.0,69,0.00,,,0.00,WUHU21623XXSP,2013-03-19 15:39:00,
2013-03-19 10:44:00,15.1,6.7,30.03,West,270,6.5,11.4,69,0.00,,,0.00,WUHU21623XXSP,2013-03-19 15:44:00,
2013-03-19 10:49:00,15.6,7.2,30.03,West,279,5.8,9.6,69,0.00,,,0.00,WUHU21623XXSP,2013-03-19 15:49:00,
2013-03-19 10:55:00,16.2,7.7,30.03,NW,318,5.2,9.6,69,0.00,,,0.00,WUHU21623XXSP,2013-03-19 15:55:00,
2013-03-19 11:00:00,16.5,7.7,30.03,WNW,290,4.8,9.4,68,0.00,,,0.00,WUHU21623XXSP,2013-03-19 16:00:00,
2013-03-19 11:05:00,17.1,8.3,30.03,NW,315,8.1,11.9,68,0.00,,,0.00,WUHU21623XXSP,2013-03-19 16:05:00,
2013-03-19 11:10:00,17.4,8.6,30.03,NW,315,6.3,12.8,68,0.00,,,0.00,WUHU21623XXSP,2013-03-19 16:10:00,
2013-03-19 11:15:00,18.0,9.1,30.03,NW,315,6.7,12.8,68,0.00,,,0.00,WUHU21623XXSP,2013-03-19 16:15:00,
2013-03-19 11:20:00,18.1,9.0,30.03,NW,315,9.2,10.5,67,0.00,,,0.00,WUHU21623XXSP,2013-03-19 16:20:00,
2013-03-19 11:25:00,18.3,8.8,30.03,West,273,7.2,12.1,66,0.00,,,0.00,WUHU21623XXSP,2013-03-19 16:25:00,
2013-03-19 11:30:00,18.7,9.1,30.03,NNW,337,7.6,13.6,66,0.00,,,0.00,WUHU21623XXSP,2013-03-19 16:30:00,
2013-03-19 11:35:00,18.9,8.9,30.04,NW,315,7.4,14.1,65,0.00,,,0.00,WUHU21623XXSP,2013-03-19 16:35:00,
2013-03-19 11:40:00,19.2,9.2,30.04,WNW,292,11.6,14.1,65,0.00,,,0.00,WUHU21623XXSP,2013-03-19 16:40:00,
2013-03-19 11:45:00,19.6,9.6,30.04,NNW,337,6.5,12.3,65,0.00,,,0.00,WUHU21623XXSP,2013-03-19 16:45:00,
2013-03-19 11:50:00,19.9,9.6,30.04,WNW,293,7.3,11.6,64,0.00,,,0.00,WUHU21623XXSP,2013-03-19 16:50:00,
2013-03-19 11:55:00,20.1,9.8,30.04,WNW,283,5.3,11.6,64,0.00,,,0.00,WUHU21623XXSP,2013-03-19 16:55:00,
2013-03-19 12:00:00,20.5,10.1,30.03,West,270,8.3,9.4,64,0.00,,,0.00,WUHU21623XXSP,2013-03-19 17:00:00,
2013-03-19 12:05:00,20.8,10.2,30.04,West,270,6.9,10.3,63,0.00,,,0.00,WUHU21623XXSP,2013-03-19 17:05:00,
2013-03-19 12:10:00,21.4,10.7,30.04,WNW,292,8.5,11.2,63,0.00,,,0.00,WUHU21623XXSP,2013-03-19 17:10:00,
2013-03-19 12:15:00,21.7,11.0,30.04,NW,315,7.4,12.1,63,0.00,,,0.00,WUHU21623XXSP,2013-03-19 17:15:00,
2013-03-19 12:20:00,21.9,10.8,30.04,WSW,251,6.5,12.1,62,0.00,,,0.00,WUHU21623XXSP,2013-03-19 17:20:00,
2013-03-19 12:25:00,22.1,11.0,30.04,NW,307,5.8,9.6,62,0.00,,,0.00,WUHU21623XXSP,2013-03-19 17:25:00,
2013-03-19 12:30:00,22.5,11.3,30.04,West,270,8.5,12.3,62,0.00,,,0.00,WUHU21623XXSP,2013-03-19 17:30:00,
2013-03-19 12:35:00,22.8,11.3,30.05,WNW,291,7.4,12.3,61,0.00,,,0.00,WUHU21623XXSP,2013-03-19 17:35:00,
2013-03-19 12:40:00,23.2,11.6,30.05,WSW,247,6.3,12.1,61,0.00,,,0.00,WUHU21623XXSP,2013-03-19 17:40:00,
2013-03-19 12:45:00,23.4,11.8,30.05,WNW,292,6.9,10.7,61,0.00,,,0.00,WUHU21623XXSP,2013-03-19 17:45:00,
2013-03-19 12:50:00,23.7,12.2,30.05,West,270,4.6,9.2,61,0.00,,,0.00,WUHU21623XXSP,2013-03-19 17:50:00,
2013-03-19 12:55:00,23.9,12.0,30.05,West,270,6.0,9.4,60,0.00,,,0.00,WUHU21623XXSP,2013-03-19 17:55:00,
2013-03-19 13:00:00,24.1,11.8,30.05,West,270,8.9,13.6,59,0.00,,,0.00,WUHU21623XXSP,2013-03-19 18:00:00,
2013-03-19 13:05:00,24.1,11.8,30.05,WSW,247,8.7,13.6,59,0.00,,,0.00,WUHU21623XXSP,2013-03-19 18:05:00,
2013-03-19 13:10:00,24.4,12.1,30.05,West,270,7.8,11.0,59,0.00,,,0.00,WUHU21623XXSP,2013-03-19 18:10:00,
2013-03-19 13:15:00,24.4,12.1,30.05,West,270,7.8,11.0,59,0.00,,,0.00,WUHU21623XXSP,2013-03-19 18:15:00,
2013-03-19 13:20:00,24.4,11.9,30.05,SW,225,7.4,11.2,58,0.00,,,0.00,WUHU21623XXSP,2013-03-19 18:20:00,
2013-03-19 13:25:00,24.4,11.7,30.05,WSW,247,8.1,13.0,58,0.00,,,0.00,WUHU21623XXSP,2013-03-19 18:25:00,
2013-03-19 13:30:00,24.6,11.9,30.05,WSW,254,7.8,13.0,58,0.00,,,0.00,WUHU21623XXSP,2013-03-19 18:30:00,
2013-03-19 13:35:00,24.6,11.9,30.05,WSW,245,6.9,10.5,58,0.00,,,0.00,WUHU21623XXSP,2013-03-19 18:35:00,
2013-03-19 13:40:00,25.2,12.4,30.05,West,270,8.7,10.5,58,0.00,,,0.00,WUHU21623XXSP,2013-03-19 18:40:00,
2013-03-19 13:45:00,25.7,12.9,30.05,West,260,7.1,10.5,58,0.00,,,0.00,WUHU21623XXSP,2013-03-19 18:45:00,
2013-03-19 13:50:00,25.9,12.6,30.05,West,270,6.0,12.8,57,0.00,,,0.00,WUHU21623XXSP,2013-03-19 18:50:00,
2013-03-19 13:55:00,26.4,13.0,30.05,West,268,5.5,13.0,57,0.00,,,0.00,WUHU21623XXSP,2013-03-19 18:55:00,
2013-03-19 14:00:00,27.0,14.1,30.05,West,270,8.3,13.0,58,0.00,,,0.00,WUHU21623XXSP,2013-03-19 19:00:00,
2013-03-19 14:05:00,27.1,13.8,30.05,West,278,7.9,11.2,57,0.00,,,0.00,WUHU21623XXSP,2013-03-19 19:05:00,
2013-03-19 14:10:00,27.1,13.4,30.05,West,281,4.1,11.4,56,0.00,,,0.00,WUHU21623XXSP,2013-03-19 19:10:00,
2013-03-19 14:15:00,27.5,13.8,30.05,NW,315,5.8,15.0,56,0.00,,,0.00,WUHU21623XXSP,2013-03-19 19:15:00,
2013-03-19 14:20:00,28.0,14.3,30.04,SW,225,5.1,15.0,56,0.00,,,0.00,WUHU21623XXSP,2013-03-19 19:20:00,
2013-03-19 14:25:00,28.0,13.9,30.05,West,270,5.4,9.8,55,0.00,,,0.00,WUHU21623XXSP,2013-03-19 19:25:00,
2013-03-19 14:31:00,28.6,14.4,30.05,NNW,337,9.8,9.8,55,0.00,,,0.00,WUHU21623XXSP,2013-03-19 19:31:00,
2013-03-19 14:36:00,28.8,14.6,30.04,WNW,289,4.8,9.8,55,0.00,,,0.00,WUHU21623XXSP,2013-03-19 19:36:00,
2013-03-19 14:41:00,28.9,14.3,30.04,WNW,300,6.5,10.3,54,0.00,,,0.00,WUHU21623XXSP,2013-03-19 19:41:00,
2013-03-19 14:46:00,29.1,14.5,30.04,WNW,290,5.3,10.3,54,0.00,,,0.00,WUHU21623XXSP,2013-03-19 19:46:00,
2013-03-19 14:51:00,29.7,15.0,30.05,WNW,284,5.9,12.1,54,0.00,,,0.00,WUHU21623XXSP,2013-03-19 19:51:00,
2013-03-19 14:56:00,29.5,14.8,30.05,WNW,288,7.2,12.5,54,0.00,,,0.00,WUHU21623XXSP,2013-03-19 19:56:00,
2013-03-19 15:01:00,29.5,14.4,30.05,West,275,6.0,12.5,53,0.00,,,0.00,WUHU21623XXSP,2013-03-19 20:01:00,
2013-03-19 15:06:00,29.7,14.6,30.05,West,270,13.0,13.0,53,0.00,,,0.00,WUHU21623XXSP,2013-03-19 20:06:00,
2013-03-19 15:11:00,29.5,14.4,30.04,WNW,292,11.0,15.9,53,0.00,,,0.00,WUHU21623XXSP,2013-03-19 20:11:00,
2013-03-19 15:16:00,29.7,14.6,30.05,West,281,6.0,15.9,53,0.00,,,0.00,WUHU21623XXSP,2013-03-19 20:16:00,
2013-03-19 15:21:00,29.7,14.6,30.05,West,272,3.9,11.6,53,0.00,,,0.00,WUHU21623XXSP,2013-03-19 20:21:00,
2013-03-19 15:26:00,30.0,14.5,30.05,West,274,6.7,13.0,52,0.00,,,0.00,WUHU21623XXSP,2013-03-19 20:26:00,
2013-03-19 15:32:00,30.0,14.5,30.05,West,272,6.9,13.0,52,0.00,,,0.00,WUHU21623XXSP,2013-03-19 20:32:00,
2013-03-19 15:37:00,29.8,14.3,30.05,WSW,247,7.6,10.5,52,0.00,,,0.00,WUHU21623XXSP,2013-03-19 20:37:00,
2013-03-19 15:42:00,29.8,13.9,30.05,WNW,285,5.3,11.2,51,0.00,,,0.00,WUHU21623XXSP,2013-03-19 20:42:00,
2013-03-19 15:47:00,30.0,14.1,30.05,NW,312,6.2,11.2,51,0.00,,,0.00,WUHU21623XXSP,2013-03-19 20:47:00,
2013-03-19 15:52:00,30.0,14.1,30.05,WNW,292,3.8,9.6,51,0.00,,,0.00,WUHU21623XXSP,2013-03-19 20:52:00,
2013-03-19 15:57:00,30.4,14.4,30.05,WNW,292,6.7,9.6,51,0.00,,,0.00,WUHU21623XXSP,2013-03-19 20:57:00,
2013-03-19 16:02:00,30.7,14.7,30.05,West,280,7.5,13.0,51,0.00,,,0.00,WUHU21623XXSP,2013-03-19 21:02:00,
2013-03-19 16:07:00,30.7,14.3,30.05,NW,310,7.8,14.1,50,0.00,,,0.00,WUHU21623XXSP,2013-03-19 21:07:00,
2013-03-19 16:12:00,30.2,13.8,30.06,WNW,302,7.5,14.1,50,0.00,,,0.00,WUHU21623XXSP,2013-03-19 21:12:00,
2013-03-19 16:17:00,29.7,13.3,30.06,West,280,7.2,11.9,50,0.00,,,0.00,WUHU21623XXSP,2013-03-19 21:17:00,
2013-03-19 16:22:00,29.1,12.3,30.06,WNW,300,7.2,10.3,49,0.00,,,0.00,WUHU21623XXSP,2013-03-19 21:22:00,
2013-03-19 16:27:00,28.6,11.9,30.06,West,262,5.0,10.3,49,0.00,,,0.00,WUHU21623XXSP,2013-03-19 21:27:00,
2013-03-19 16:32:00,28.2,11.5,30.06,West,277,7.0,13.2,49,0.00,,,0.00,WUHU21623XXSP,2013-03-19 21:32:00,
2013-03-19 16:37:00,28.2,12.0,30.07,NW,315,7.4,13.2,50,0.00,,,0.00,WUHU21623XXSP,2013-03-19 21:37:00,
2013-03-19 16:42:00,28.2,11.5,30.06,NW,316,7.8,12.5,49,0.00,,,0.00,WUHU21623XXSP,2013-03-19 21:42:00,
2013-03-19 16:47:00,28.2,11.5,30.06,WNW,285,9.4,14.1,49,0.00,,,0.00,WUHU21623XXSP,2013-03-19 21:47:00,
2013-03-19 16:52:00,27.9,10.7,30.06,NW,311,8.3,14.1,48,0.00,,,0.00,WUHU21623XXSP,2013-03-19 21:52:00,
2013-03-19 16:57:00,27.5,9.8,30.06,NW,315,10.3,13.4,47,0.00,,,0.00,WUHU21623XXSP,2013-03-19 21:57:00,
2013-03-19 17:02:00,27.1,9.9,30.06,NW,315,10.3,13.4,48,0.00,,,0.00,WUHU21623XXSP,2013-03-19 22:02:00,
2013-03-19 17:07:00,26.4,9.3,30.06,NW,311,7.3,13.2,48,0.00,,,0.00,WUHU21623XXSP,2013-03-19 22:07:00,
2013-03-19 17:12:00,26.2,9.1,30.06,WNW,297,8.7,13.2,48,0.00,,,0.00,WUHU21623XXSP,2013-03-19 22:12:00,
2013-03-19 17:17:00,25.9,8.3,30.06,West,279,7.1,16.6,47,0.00,,,0.00,WUHU21623XXSP,2013-03-19 22:17:00,
2013-03-19 17:23:00,25.5,8.0,30.06,NW,315,11.9,16.6,47,0.00,,,0.00,WUHU21623XXSP,2013-03-19 22:23:00,
2013-03-19 17:28:00,25.2,7.6,30.06,WNW,290,8.3,16.6,47,0.00,,,0.00,WUHU21623XXSP,2013-03-19 22:28:00,
2013-03-19 17:33:00,25.0,7.5,30.05,NW,305,7.7,16.6,47,0.00,,,0.00,WUHU21623XXSP,2013-03-19 22:33:00,
2013-03-19 17:38:00,24.6,7.6,30.05,NW,309,7.7,15.2,48,0.00,,,0.00,WUHU21623XXSP,2013-03-19 22:38:00,
2013-03-19 17:43:00,24.8,7.8,30.05,NW,315,6.7,15.2,48,0.00,,,0.00,WUHU21623XXSP,2013-03-19 22:43:00,
2013-03-19 17:48:00,25.0,8.0,30.06,WNW,285,6.4,9.4,48,0.00,,,0.00,WUHU21623XXSP,2013-03-19 22:48:00,
2013-03-19 17:53:00,24.6,7.6,30.06,WNW,294,7.9,13.9,48,0.00,,,0.00,WUHU21623XXSP,2013-03-19 22:53:00,
2013-03-19 17:58:00,24.6,7.6,30.06,WNW,292,10.3,13.9,48,0.00,,,0.00,WUHU21623XXSP,2013-03-19 22:58:00,
2013-03-19 18:03:00,24.6,7.6,30.07,WNW,293,5.3,12.8,48,0.00,,,0.00,WUHU21623XXSP,2013-03-19 23:03:00,
2013-03-19 18:08:00,24.6,7.6,30.06,WNW,292,4.7,12.8,48,0.00,,,0.00,WUHU21623XXSP,2013-03-19 23:08:00,
2013-03-19 18:13:00,24.6,8.1,30.07,West,270,6.9,11.9,49,0.00,,,0.00,WUHU21623XXSP,2013-03-19 23:13:00,
2013-03-19 18:18:00,24.6,8.1,30.07,NW,311,3.0,11.9,49,0.00,,,0.00,WUHU21623XXSP,2013-03-19 23:18:00,
2013-03-19 18:23:00,24.6,7.6,30.07,WNW,302,3.5,11.9,48,0.00,,,0.00,WUHU21623XXSP,2013-03-19 23:23:00,
2013-03-19 18:28:00,24.4,7.5,30.08,NW,314,5.8,12.1,48,0.00,,,0.00,WUHU21623XXSP,2013-03-19 23:28:00,
2013-03-19 18:33:00,23.7,6.8,30.07,WNW,295,4.1,12.1,48,0.00,,,0.00,WUHU21623XXSP,2013-03-19 23:33:00,
2013-03-19 18:38:00,23.4,6.5,30.08,WNW,291,4.9,10.5,48,0.00,,,0.00,WUHU21623XXSP,2013-03-19 23:38:00,
2013-03-19 18:43:00,22.8,6.0,30.08,NNW,337,8.9,11.9,48,0.00,,,0.00,WUHU21623XXSP,2013-03-19 23:43:00,
2013-03-19 18:48:00,22.5,5.6,30.08,NW,315,4.7,11.9,48,0.00,,,0.00,WUHU21623XXSP,2013-03-19 23:48:00,
2013-03-19 18:53:00,22.1,5.3,30.08,NW,315,10.3,10.3,48,0.00,,,0.00,WUHU21623XXSP,2013-03-19 23:53:00,
2013-03-19 18:58:00,21.7,4.9,30.08,NNW,329,5.9,10.3,48,0.00,,,0.00,WUHU21623XXSP,2013-03-19 23:58:00,
2013-03-19 19:03:00,21.4,4.6,30.08,NW,309,5.8,11.0,48,0.00,,,0.00,WUHU21623XXSP,2013-03-20 00:03:00,
2013-03-19 19:08:00,21.0,4.7,30.09,WNW,299,6.3,11.0,49,0.00,,,0.00,WUHU21623XXSP,2013-03-20 00:08:00,
2013-03-19 19:13:00,20.7,4.4,30.09,NW,310,3.5,10.1,49,0.00,,,0.00,WUHU21623XXSP,2013-03-20 00:13:00,
2013-03-19 19:18:00,20.5,4.2,30.09,NW,320,5.4,9.2,49,0.00,,,0.00,WUHU21623XXSP,2013-03-20 00:18:00,
2013-03-19 19:23:00,20.1,3.9,30.09,NW,323,4.6,13.2,49,0.00,,,0.00,WUHU21623XXSP,2013-03-20 00:23:00,
2013-03-19 19:29:00,19.8,3.6,30.09,WNW,292,5.1,13.2,49,0.00,,,0.00,WUHU21623XXSP,2013-03-20 00:29:00,
2013-03-19 19:34:00,19.6,3.4,30.09,NW,313,5.7,9.8,49,0.00,,,0.00,WUHU21623XXSP,2013-03-20 00:34:00,
2013-03-19 19:39:00,19.2,3.1,30.10,WNW,292,5.1,14.3,49,0.00,,,0.00,WUHU21623XXSP,2013-03-20 00:39:00,
2013-03-19 19:44:00,18.9,2.8,30.10,NW,315,6.0,14.3,49,0.00,,,0.00,WUHU21623XXSP,2013-03-20 00:44:00,
2013-03-19 19:49:00,18.5,2.5,30.10,WNW,292,5.6,12.1,49,0.00,,,0.00,WUHU21623XXSP,2013-03-20 00:49:00,
2013-03-19 19:54:00,18.3,2.8,30.10,NW,326,5.9,9.2,50,0.00,,,0.00,WUHU21623XXSP,2013-03-20 00:54:00,
2013-03-19 19:59:00,18.1,2.6,30.11,NW,315,5.8,10.7,50,0.00,,,0.00,WUHU21623XXSP,2013-03-20 00:59:00,
2013-03-19 20:04:00,17.8,2.3,30.11,NW,315,4.5,10.7,50,0.00,,,0.00,WUHU21623XXSP,2013-03-20 01:04:00,
2013-03-19 20:09:00,17.6,2.1,30.11,NW,311,4.6,9.2,50,0.00,,,0.00,WUHU21623XXSP,2013-03-20 01:09:00,
2013-03-19 20:14:00,17.4,2.3,30.11,WNW,292,4.0,8.9,51,0.00,,,0.00,WUHU21623XXSP,2013-03-20 01:14:00,
2013-03-19 20:19:00,17.4,2.3,30.11,WNW,296,4.4,10.3,51,0.00,,,0.00,WUHU21623XXSP,2013-03-20 01:19:00,
2013-03-19 20:24:00,17.2,2.2,30.11,WNW,285,2.2,10.3,51,0.00,,,0.00,WUHU21623XXSP,2013-03-20 01:24:00,
2013-03-19 20:29:00,17.1,2.4,30.11,NNW,337,2.2,8.7,52,0.00,,,0.00,WUHU21623XXSP,2013-03-20 01:29:00,
2013-03-19 20:34:00,16.9,2.2,30.11,WSW,257,4.5,9.4,52,0.00,,,0.00,WUHU21623XXSP,2013-03-20 01:34:00,
2013-03-19 20:39:00,16.7,2.1,30.12,WNW,294,4.1,9.4,52,0.00,,,0.00,WUHU21623XXSP,2013-03-20 01:39:00,
2013-03-19 20:44:00,16.3,1.7,30.12,NW,308,5.1,14.5,52,0.00,,,0.00,WUHU21623XXSP,2013-03-20 01:44:00,
2013-03-19 20:49:00,16.3,1.7,30.12,West,270,9.2,14.5,52,0.00,,,0.00,WUHU21623XXSP,2013-03-20 01:49:00,
2013-03-19 20:54:00,16.0,1.8,30.12,WNW,292,4.9,11.6,53,0.00,,,0.00,WUHU21623XXSP,2013-03-20 01:54:00,
2013-03-19 20:59:00,15.8,1.6,30.11,NW,320,5.3,10.7,53,0.00,,,0.00,WUHU21623XXSP,2013-03-20 01:59:00,
2013-03-19 21:04:00,15.6,1.5,30.12,NW,315,11.4,15.7,53,0.00,,,0.00,WUHU21623XXSP,2013-03-20 02:04:00,
2013-03-19 21:09:00,15.4,1.3,30.12,NNW,328,7.5,15.7,53,0.00,,,0.00,WUHU21623XXSP,2013-03-20 02:09:00,
2013-03-19 21:14:00,15.4,1.7,30.12,West,270,6.7,13.2,54,0.00,,,0.00,WUHU21623XXSP,2013-03-20 02:14:00,
2013-03-19 21:19:00,15.3,1.5,30.12,NW,306,4.4,10.3,54,0.00,,,0.00,WUHU21623XXSP,2013-03-20 02:19:00,
2013-03-19 21:24:00,15.1,1.3,30.12,WSW,247,6.0,11.6,54,0.00,,,0.00,WUHU21623XXSP,2013-03-20 02:24:00,
2013-03-19 21:29:00,14.9,1.1,30.12,NW,305,4.0,11.6,54,0.00,,,0.00,WUHU21623XXSP,2013-03-20 02:29:00,
2013-03-19 21:34:00,14.7,1.0,30.12,NNW,330,5.9,15.2,54,0.00,,,0.00,WUHU21623XXSP,2013-03-20 02:34:00,
2013-03-19 21:39:00,14.7,1.0,30.12,NW,315,10.5,17.0,54,0.00,,,0.00,WUHU21623XXSP,2013-03-20 02:39:00,
2013-03-19 21:44:00,14.5,0.8,30.12,NW,308,7.6,17.0,54,0.00,,,0.00,WUHU21623XXSP,2013-03-20 02:44:00,
2013-03-19 21:49:00,14.4,1.0,30.12,WNW,299,7.4,10.7,55,0.00,,,0.00,WUHU21623XXSP,2013-03-20 02:49:00,
2013-03-19 21:54:00,14.2,0.8,30.12,NW,323,6.6,12.1,55,0.00,,,0.00,WUHU21623XXSP,2013-03-20 02:54:00,
2013-03-19 21:59:00,14.2,0.8,30.12,NW,315,3.2,13.2,55,0.00,,,0.00,WUHU21623XXSP,2013-03-20 02:59:00,
2013-03-19 22:04:00,14.2,0.8,30.12,NW,315,5.9,13.2,55,0.00,,,0.00,WUHU21623XXSP,2013-03-20 03:04:00,
2013-03-19 22:09:00,13.8,0.5,30.12,NW,311,6.2,8.7,55,0.00,,,0.00,WUHU21623XXSP,2013-03-20 03:09:00,
2013-03-19 22:14:00,13.8,0.5,30.13,NW,315,6.9,11.2,55,0.00,,,0.00,WUHU21623XXSP,2013-03-20 03:14:00,
2013-03-19 22:19:00,13.8,0.5,30.12,NW,309,5.0,11.2,55,0.00,,,0.00,WUHU21623XXSP,2013-03-20 03:19:00,
2013-03-19 22:24:00,13.6,0.7,30.12,WNW,294,8.3,15.2,56,0.00,,,0.00,WUHU21623XXSP,2013-03-20 03:24:00,
2013-03-19 22:29:00,13.6,0.7,30.13,WNW,303,3.7,15.2,56,0.00,,,0.00,WUHU21623XXSP,2013-03-20 03:29:00,
2013-03-19 22:34:00,13.6,0.7,30.13,NW,317,4.1,13.4,56,0.00,,,0.00,WUHU21623XXSP,2013-03-20 03:34:00,
2013-03-19 22:39:00,13.3,0.4,30.13,NW,304,5.1,11.0,56,0.00,,,0.00,WUHU21623XXSP,2013-03-20 03:39:00,
2013-03-19 22:44:00,13.3,0.4,30.13,NW,312,5.8,11.0,56,0.00,,,0.00,WUHU21623XXSP,2013-03-20 03:44:00,
2013-03-19 22:50:00,13.3,0.4,30.13,NW,304,6.2,10.7,56,0.00,,,0.00,WUHU21623XXSP,2013-03-20 03:50:00,
2013-03-19 22:55:00,13.1,0.2,30.13,NW,315,6.3,10.7,56,0.00,,,0.00,WUHU21623XXSP,2013-03-20 03:55:00,
2013-03-19 23:00:00,12.9,0.0,30.13,NW,315,11.9,11.9,56,0.00,,,0.00,WUHU21623XXSP,2013-03-20 04:00:00,
2013-03-19 23:05:00,12.9,0.0,30.13,West,270,7.6,11.9,56,0.00,,,0.00,WUHU21623XXSP,2013-03-20 04:05:00,
2013-03-19 23:10:00,12.7,0.2,30.14,NW,313,4.6,11.4,57,0.00,,,0.00,WUHU21623XXSP,2013-03-20 04:10:00,
2013-03-19 23:15:00,12.7,0.2,30.14,WNW,289,5.8,11.4,57,0.00,,,0.00,WUHU21623XXSP,2013-03-20 04:15:00,
2013-03-19 23:20:00,12.7,0.2,30.14,NW,311,6.6,11.0,57,0.00,,,0.00,WUHU21623XXSP,2013-03-20 04:20:00,
2013-03-19 23:25:00,12.6,0.1,30.14,NW,315,6.0,11.0,57,0.00,,,0.00,WUHU21623XXSP,2013-03-20 04:25:00,
2013-03-19 23:30:00,12.4,-0.1,30.15,NW,315,5.8,10.7,57,0.00,,,0.00,WUHU21623XXSP,2013-03-20 04:30:00,
2013-03-19 23:35:00,12.4,-0.1,30.15,NNW,328,3.0,10.7,57,0.00,,,0.00,WUHU21623XXSP,2013-03-20 04:35:00,
2013-03-19 23:40:00,12.4,-0.1,30.15,WNW,300,5.1,13.0,57,0.00,,,0.00,WUHU21623XXSP,2013-03-20 04:40:00,
2013-03-19 23:45:00,12.2,-0.3,30.15,WNW,302,3.6,15.0,57,0.00,,,0.00,WUHU21623XXSP,2013-03-20 04:45:00,
2013-03-19 23:50:00,12.2,0.1,30.15,WNW,292,2.9,15.0,58,0.00,,,0.00,WUHU21623XXSP,2013-03-20 04:50:00,
2013-03-19 23:55:00,12.0,-0.1,30.15,NW,309,5.8,8.5,58,0.00,,,0.00,WUHU21623XXSP,2013-03-20 04:55:00,